Time;durP1;ratioP1;P1;durP2;ratioP2;P2;SDS_P1;SDS_P2;PMS_P1;PMS_P2;Temp;Humidity;BMP_temperature;BMP_pressure;BME280_temperature;BME280_humidity;BME280_pressure;Samples;Min_cycle;Max_cycle;Signal;HPM_P1;HPM_P2
2023/01/13 00:00:46;;;;;;;;;;;;;;;;;;5087603;28;19924;-58
2023/01/13 00:03:12;;;;;;;;;;;;;;;;;;5094432;28;20412;-58
2023/01/13 00:05:38;;;;;;;;;;;;;;;;;;5092595;28;19939;-57
2023/01/13 00:08:05;;;;;;;;;;;;;;;;;;5096192;28;19933;-57
2023/01/13 00:10:31;;;;;;;;;;;;;;;;;;5089904;28;19950;-57
2023/01/13 00:12:57;;;;;;;;;;;;;;;;;;5097287;28;19952;-57
2023/01/13 00:15:23;;;;;;;;;;;;;;;;;;5088155;28;19927;-58
2023/01/13 00:17:49;;;;;;;;;;;;;;;;;;5085793;28;20441;-58
2023/01/13 00:20:15;;;;;;;;;;;;;;;;;;5087191;28;19924;-58
2023/01/13 00:22:41;;;;;;;;;;;;;;;;;;5098388;28;19924;-57
2023/01/13 00:25:07;;;;;;;;;;;;;;;;;;5087604;28;19924;-56
2023/01/13 00:27:33;;;;;;;;;;;;;;;;;;5094176;28;19946;-57
2023/01/13 00:29:59;;;;;;;;;;;;;;;;;;5087134;28;19955;-57
2023/01/13 00:32:25;;;;;;;;;;;;;;;;;;5090023;28;20379;-57
2023/01/13 00:34:51;;;;;;;;;;;;;;;;;;5087138;28;20370;-58
2023/01/13 00:37:17;;;;;;;;;;;;;;;;;;5075455;28;19928;-58
2023/01/13 00:39:43;;;;;;;;;;;;;;;;;;5086268;28;19938;-57
2023/01/13 00:44:54;;;;;;;;;;;;;;;;;;5083072;28;19931;-57
2023/01/13 00:47:20;;;;;;;;;;;;;;;;;;5086805;28;19925;-57
2023/01/13 00:49:46;;;;;;;;;;;;;;;;;;5083164;28;19919;-57
2023/01/13 00:52:12;;;;;;;;;;;;;;;;;;5095133;28;19932;-57
2023/01/13 00:54:38;;;;;;;;;;;;;;;;;;5083719;28;20438;-57
2023/01/13 00:57:04;;;;;;;;;;;;;;;;;;5097414;28;19920;-57
2023/01/13 00:59:30;;;;;;;;;;;;;;;;;;5085744;28;19999;-57
2023/01/13 01:01:56;;;;;;;;;;;;;;;;;;5098792;28;20061;-58
2023/01/13 01:04:22;;;;;;;;;;;;;;;;;;5097344;28;19924;-57
2023/01/13 01:06:48;;;;;;;;;;;;;;;;;;5091357;28;19928;-57
2023/01/13 01:09:14;;;;;;;;;;;;;;;;;;5093758;28;19925;-57
2023/01/13 01:11:40;;;;;;;;;;;;;;;;;;5091070;28;19935;-57
2023/01/13 01:14:06;;;;;;;;;;;;;;;;;;5085522;28;20007;-57
2023/01/13 01:16:32;;;;;;;;;;;;;;;;;;5094110;28;20007;-58
2023/01/13 01:18:58;;;;;;;;;;;;;;;;;;5085979;28;20281;-57
2023/01/13 01:21:24;;;;;;;;;;;;;;;;;;5093560;28;19916;-57
2023/01/13 01:23:50;;;;;;;;;;;;;;;;;;5085473;28;19931;-57
2023/01/13 01:26:16;;;;;;;;;;;;;;;;;;5097964;28;20286;-58
2023/01/13 01:28:42;;;;;;;;;;;;;;;;;;5084614;28;19924;-57
2023/01/13 01:31:08;;;;;;;;;;;;;;;;;;5098514;28;19924;-57
2023/01/13 01:33:34;;;;;;;;;;;;;;;;;;5094254;28;19924;-58
2023/01/13 01:36:00;;;;;;;;;;;;;;;;;;5087808;28;19924;-57
2023/01/13 01:38:26;;;;;;;;;;;;;;;;;;5085998;28;20003;-56
2023/01/13 01:40:52;;;;;;;;;;;;;;;;;;5094971;28;20006;-55
2023/01/13 01:52:21;;;;;;;;;;;;;;;;;;5084892;28;19918;-56
2023/01/13 01:54:47;;;;;;;;;;;;;;;;;;5092815;28;19923;-57
2023/01/13 01:57:13;;;;;;;;;;;;;;;;;;5093003;28;19938;-56
2023/01/13 01:59:39;;;;;;;;;;;;;;;;;;5097167;28;19924;-58
2023/01/13 02:02:05;;;;;;;;;;;;;;;;;;5087320;28;20324;-57
2023/01/13 02:04:31;;;;;;;;;;;;;;;;;;5182116;22;19922;-55
2023/01/13 02:06:57;;;;;;;;;;;;;;;;;;5101519;28;19923;-54
2023/01/13 02:09:23;;;;;;;;;;;;;;;;;;5104312;28;20392;-55
2023/01/13 02:14:34;;;;;;;;;;;;;;;;;;5101685;28;19930;-54
2023/01/13 02:17:00;;;;;;;;;;;;;;;;;;5103694;28;20319;-55
2023/01/13 02:19:26;;;;;;;;;;;;;;;;;;5104215;28;19924;-55
2023/01/13 02:21:52;;;;;;;;;;;;;;;;;;5102053;28;19924;-55
2023/01/13 02:27:02;;;;;;;;;;;;;;;;;;5105003;28;19970;-53
2023/01/13 02:32:13;;;;;;;;;;;;;;;;;;5101658;28;19931;-54
2023/01/13 02:34:39;;;;;;;;;;;;;;;;;;5103642;28;19934;-55
2023/01/13 02:37:05;;;;;;;;;;;;;;;;;;5104358;28;19924;-55
2023/01/13 02:39:31;;;;;;;;;;;;;;;;;;5099604;28;20434;-52
2023/01/13 02:44:42;;;;;;;;;;;;;;;;;;5101706;28;19931;-55
2023/01/13 02:47:08;;;;;;;;;;;;;;;;;;5106365;28;19924;-55
2023/01/13 02:49:34;;;;;;;;;;;;;;;;;;5107383;28;20136;-55
2023/01/13 02:52:00;;;;;;;;;;;;;;;;;;5108548;28;20432;-54
2023/01/13 02:54:26;;;;;;;;;;;;;;;;;;5104146;28;19924;-55
2023/01/13 02:56:52;;;;;;;;;;;;;;;;;;5104700;28;19950;-53
2023/01/13 02:59:18;;;;;;;;;;;;;;;;;;5106534;28;19924;-54
2023/01/13 03:01:44;;;;;;;;;;;;;;;;;;5101823;28;19931;-55
2023/01/13 03:04:10;;;;;;;;;;;;;;;;;;5106233;28;20115;-55
2023/01/13 03:06:36;;;;;;;;;;;;;;;;;;5106858;28;19988;-54
2023/01/13 03:09:02;;;;;;;;;;;;;;;;;;5103503;28;19923;-55
2023/01/13 03:11:31;;;;;;;;;;;;;;;;;;5108015;28;20304;-54
2023/01/13 03:13:57;;;;;;;;;;;;;;;;;;5103787;28;19957;-54
2023/01/13 03:16:23;;;;;;;;;;;;;;;;;;5107001;28;20365;-54
2023/01/13 03:18:49;;;;;;;;;;;;;;;;;;5105076;28;19938;-55
2023/01/13 03:21:15;;;;;;;;;;;;;;;;;;5107305;28;19928;-55
2023/01/13 03:23:41;;;;;;;;;;;;;;;;;;5106122;28;19923;-54
2023/01/13 03:26:07;;;;;;;;;;;;;;;;;;5107644;28;19931;-55
2023/01/13 03:28:33;;;;;;;;;;;;;;;;;;5105954;28;20316;-54
2023/01/13 03:30:59;;;;;;;;;;;;;;;;;;5105924;28;19981;-53
2023/01/13 03:33:25;;;;;;;;;;;;;;;;;;5107435;28;20011;-55
2023/01/13 03:35:51;;;;;;;;;;;;;;;;;;5101747;28;20002;-55
2023/01/13 03:38:18;;;;;;;;;;;;;;;;;;5103933;28;20377;-54
2023/01/13 03:40:44;;;;;;;;;;;;;;;;;;5099058;27;20651;-55
2023/01/13 03:45:55;;;;;;;;;;;;;;;;;;5107240;28;19990;-55
2023/01/13 03:48:21;;;;;;;;;;;;;;;;;;5106587;28;19930;-54
2023/01/13 03:50:47;;;;;;;;;;;;;;;;;;5106797;28;19923;-55
2023/01/13 03:53:13;;;;;;;;;;;;;;;;;;5106704;28;20385;-56
2023/01/13 03:55:39;;;;;;;;;;;;;;;;;;5106576;28;19935;-54
2023/01/13 03:58:06;;;;;;;;;;;;;;;;;;5105672;28;19924;-53
2023/01/13 04:00:32;;;;;;;;;;;;;;;;;;5106281;28;20010;-55
2023/01/13 04:02:58;;;;;;;;;;;;;;;;;;5106893;28;20014;-55
2023/01/13 04:05:24;;;;;;;;;;;;;;;;;;5106776;28;20485;-54
2023/01/13 04:07:50;;;;;;;;;;;;;;;;;;5106696;28;19931;-53
2023/01/13 04:10:16;;;;;;;;;;;;;;;;;;5106212;28;19924;-55
2023/01/13 04:13:01;;;;;;;;;;;;;;;;;;5105420;28;19931;-54
2023/01/13 04:15:27;;;;;;;;;;;;;;;;;;5106642;28;19924;-55
2023/01/13 04:17:53;;;;;;;;;;;;;;;;;;5106090;27;19930;-55
2023/01/13 04:20:19;;;;;;;;;;;;;;;;;;5106876;28;20026;-54
2023/01/13 04:22:45;;;;;;;;;;;;;;;;;;5105314;28;19949;-53
2023/01/13 04:25:11;;;;;;;;;;;;;;;;;;5106441;28;20384;-54
2023/01/13 04:27:37;;;;;;;;;;;;;;;;;;5100806;28;19928;-54
2023/01/13 04:30:03;;;;;;;;;;;;;;;;;;5103976;28;20406;-55
2023/01/13 04:32:29;;;;;;;;;;;;;;;;;;5104693;28;20039;-53
2023/01/13 04:34:55;;;;;;;;;;;;;;;;;;5106263;27;19999;-56
2023/01/13 04:37:21;;;;;;;;;;;;;;;;;;5104027;28;20020;-55
2023/01/13 04:39:47;;;;;;;;;;;;;;;;;;5106024;28;20342;-55
2023/01/13 04:42:13;;;;;;;;;;;;;;;;;;5102943;28;20006;-55
2023/01/13 04:44:39;;;;;;;;;;;;;;;;;;5100359;28;19953;-55
2023/01/13 04:47:05;;;;;;;;;;;;;;;;;;5103723;28;19930;-54
2023/01/13 04:49:32;;;;;;;;;;;;;;;;;;5103624;28;20396;-52
2023/01/13 04:51:58;;;;;;;;;;;;;;;;;;5102520;28;20048;-55
2023/01/13 04:54:24;;;;;;;;;;;;;;;;;;5104350;28;20018;-55
2023/01/13 04:56:50;;;;;;;;;;;;;;;;;;5103509;28;20065;-55
2023/01/13 04:59:16;;;;;;;;;;;;;;;;;;5104253;28;20073;-55
2023/01/13 05:01:42;;;;;;;;;;;;;;;;;;5103394;28;19924;-51
2023/01/13 05:04:08;;;;;;;;;;;;;;;;;;5105083;28;19924;-55
2023/01/13 05:06:34;;;;;;;;;;;;;;;;;;5102265;28;19931;-52
2023/01/13 05:09:00;;;;;;;;;;;;;;;;;;5101070;28;19955;-54
2023/01/13 05:17:02;;;;;;;;;;;;;;;;;;5102655;28;19923;-55
2023/01/13 05:19:28;;;;;;;;;;;;;;;;;;5105379;28;19931;-55
2023/01/13 05:27:23;;;;;;;;;;;;;;;;;;5103703;28;19989;-55
2023/01/13 05:29:49;;;;;;;;;;;;;;;;;;5103118;28;20118;-55
2023/01/13 05:32:15;;;;;;;;;;;;;;;;;;5104249;28;19924;-55
2023/01/13 05:34:41;;;;;;;;;;;;;;;;;;5104958;28;19923;-53
2023/01/13 05:37:09;;;;;;;;;;;;;;;;;;5105208;28;20312;-55
2023/01/13 05:45:04;;;;;;;;;;;;;;;;;;5098132;28;19977;-53
2023/01/13 05:47:30;;;;;;;;;;;;;;;;;;5099840;28;19936;-55
2023/01/13 05:49:56;;;;;;;;;;;;;;;;;;5103913;28;20364;-54
2023/01/13 05:52:22;;;;;;;;;;;;;;;;;;5104261;28;19930;-57
2023/01/13 05:54:49;;;;;;;;;;;;;;;;;;5102891;28;19927;-56
2023/01/13 05:57:15;;;;;;;;;;;;;;;;;;5103900;28;19923;-57
2023/01/13 05:59:41;;;;;;;;;;;;;;;;;;5100424;28;19988;-57
2023/01/13 06:02:07;;;;;;;;;;;;;;;;;;5105040;28;20343;-58
2023/01/13 06:04:33;;;;;;;;;;;;;;;;;;5107363;28;19932;-59
2023/01/13 06:06:59;;;;;;;;;;;;;;;;;;5104535;28;19927;-58
2023/01/13 06:09:25;;;;;;;;;;;;;;;;;;5101306;28;20785;-59
2023/01/13 06:11:51;;;;;;;;;;;;;;;;;;5102777;28;19928;-58
2023/01/13 06:14:17;;;;;;;;;;;;;;;;;;5102032;28;19928;-58
2023/01/13 06:16:44;;;;;;;;;;;;;;;;;;5103730;28;19923;-57
2023/01/13 06:19:11;;;;;;;;;;;;;;;;;;5102316;28;19959;-58
2023/01/13 06:21:37;;;;;;;;;;;;;;;;;;5102917;27;19930;-58
2023/01/13 06:24:04;;;;;;;;;;;;;;;;;;5105556;28;20018;-58
2023/01/13 06:26:30;;;;;;;;;;;;;;;;;;5104399;28;20435;-57
2023/01/13 06:28:56;;;;;;;;;;;;;;;;;;5105525;28;19926;-58
2023/01/13 06:31:22;;;;;;;;;;;;;;;;;;5105505;28;20010;-58
2023/01/13 06:33:48;;;;;;;;;;;;;;;;;;5104837;27;19965;-53
2023/01/13 06:36:14;;;;;;;;;;;;;;;;;;5105122;28;19923;-58
2023/01/13 06:38:40;;;;;;;;;;;;;;;;;;5108007;28;19930;-56
2023/01/13 06:41:06;;;;;;;;;;;;;;;;;;5107304;28;20309;-56
2023/01/13 06:43:32;;;;;;;;;;;;;;;;;;5107051;28;20399;-58
2023/01/13 06:45:58;;;;;;;;;;;;;;;;;;5107774;28;20014;-58
2023/01/13 06:48:24;;;;;;;;;;;;;;;;;;5105524;28;19940;-57
2023/01/13 06:50:50;;;;;;;;;;;;;;;;;;5105191;27;19932;-58
2023/01/13 06:53:16;;;;;;;;;;;;;;;;;;5107608;28;19924;-57
2023/01/13 06:55:42;;;;;;;;;;;;;;;;;;5108019;28;19931;-57
2023/01/13 06:58:08;;;;;;;;;;;;;;;;;;5107926;28;20049;-56
2023/01/13 07:00:35;;;;;;;;;;;;;;;;;;5107856;28;19998;-58
2023/01/13 07:03:01;;;;;;;;;;;;;;;;;;5105862;28;19976;-58
2023/01/13 07:05:27;;;;;;;;;;;;;;;;;;5107953;28;19924;-57
2023/01/13 07:07:53;;;;;;;;;;;;;;;;;;5109122;27;19976;-51
2023/01/13 07:10:21;;;;;;;;;;;;;;;;;;5103520;28;20498;-55
2023/01/13 07:15:31;;;;;;;;;;;;;;;;;;5107584;28;20018;-53
2023/01/13 07:17:57;;;;;;;;;;;;;;;;;;5106175;28;20390;-56
2023/01/13 07:20:23;;;;;;;;;;;;;;;;;;5104217;28;20014;-55
2023/01/13 07:22:49;;;;;;;;;;;;;;;;;;5105772;27;20484;-54
2023/01/13 07:25:15;;;;;;;;;;;;;;;;;;5107810;28;19924;-55
2023/01/13 07:27:41;;;;;;;;;;;;;;;;;;5106552;28;19931;-55
2023/01/13 07:30:07;;;;;;;;;;;;;;;;;;5105574;28;20504;-56
2023/01/13 07:32:33;;;;;;;;;;;;;;;;;;5101948;28;19982;-51
2023/01/13 07:35:04;;;;;;;;;;;;;;;;;;5105963;28;20534;-55
2023/01/13 07:37:30;;;;;;;;;;;;;;;;;;5107190;28;19931;-55
2023/01/13 07:39:56;;;;;;;;;;;;;;;;;;5105302;27;19930;-49
2023/01/13 07:45:06;;;;;;;;;;;;;;;;;;5099505;28;19931;-55
2023/01/13 07:47:32;;;;;;;;;;;;;;;;;;5103444;28;19923;-55
2023/01/13 07:49:58;;;;;;;;;;;;;;;;;;5106846;28;19946;-55
2023/01/13 07:52:24;;;;;;;;;;;;;;;;;;5105151;28;20042;-55
2023/01/13 07:54:50;;;;;;;;;;;;;;;;;;5105875;28;19952;-55
2023/01/13 07:57:16;;;;;;;;;;;;;;;;;;5106869;28;19935;-56
2023/01/13 07:59:42;;;;;;;;;;;;;;;;;;5101849;28;20365;-52
2023/01/13 08:02:08;;;;;;;;;;;;;;;;;;5102976;28;19926;-53
2023/01/13 08:04:34;;;;;;;;;;;;;;;;;;5102094;28;19954;-54
2023/01/13 08:07:00;;;;;;;;;;;;;;;;;;5090657;28;19928;-54
2023/01/13 08:09:26;;;;;;;;;;;;;;;;;;5090464;28;19923;-55
2023/01/13 08:13:16;;;;;;;;;;;;;;;;;;5088721;28;19924;-55
2023/01/13 08:14:38;;;;;;;;;;;;;;;;;;5086476;28;20030;-55
2023/01/13 08:17:04;;;;;;;;;;;;;;;;;;5086800;28;20345;-53
2023/01/13 08:19:30;;;;;;;;;;;;;;;;;;5087441;28;19928;-55
2023/01/13 08:21:56;;;;;;;;;;;;;;;;;;5093536;28;20011;-53
2023/01/13 08:24:22;;;;;;;;;;;;;;;;;;5096453;28;19984;-51
2023/01/13 08:26:48;;;;;;;;;;;;;;;;;;5089355;28;19927;-56
2023/01/13 08:29:14;;;;;;;;;;;;;;;;;;5095606;28;20387;-56
2023/01/13 08:31:40;;;;;;;;;;;;;;;;;;5067263;28;20440;-54
2023/01/13 08:34:06;;;;;;;;;;;;;;;;;;5093374;28;20014;-55
2023/01/13 08:36:32;;;;;;;;;;;;;;;;;;5092798;28;19943;-55
2023/01/13 08:38:58;;;;;;;;;;;;;;;;;;5094196;28;19939;-52
2023/01/13 08:44:09;;;;;;;;;;;;;;;;;;5094888;28;20323;-54
2023/01/13 08:46:35;;;;;;;;;;;;;;;;;;5093034;28;19932;-56
2023/01/13 08:49:01;;;;;;;;;;;;;;;;;;5093261;28;19974;-53
2023/01/13 08:51:27;;;;;;;;;;;;;;;;;;5096472;28;20368;-53
2023/01/13 08:53:53;;;;;;;;;;;;;;;;;;5096401;28;19928;-56
2023/01/13 08:56:19;;;;;;;;;;;;;;;;;;5096923;28;19930;-54
2023/01/13 08:58:53;;;;;;;;;;;;;;;;;;5079185;27;19923;-51
2023/01/13 09:01:19;;;;;;;;;;;;;;;;;;5078190;28;19928;-55
2023/01/13 09:03:45;;;;;;;;;;;;;;;;;;5079521;28;19924;-55
2023/01/13 09:06:11;;;;;;;;;;;;;;;;;;5079903;28;19925;-56
2023/01/13 09:08:37;;;;;;;;;;;;;;;;;;5077772;28;19928;-54
2023/01/13 09:13:10;;;;;;;;;;;;;;;;;;5079363;28;20451;-56
2023/01/13 09:13:49;;;;;;;;;;;;;;;;;;5079370;28;19928;-56
2023/01/13 09:16:15;;;;;;;;;;;;;;;;;;5079355;28;19924;-56
2023/01/13 09:18:41;;;;;;;;;;;;;;;;;;5079203;28;19935;-54
2023/01/13 09:21:07;;;;;;;;;;;;;;;;;;5077997;28;19928;-57
2023/01/13 09:23:33;;;;;;;;;;;;;;;;;;5078537;28;20664;-55
2023/01/13 09:25:59;;;;;;;;;;;;;;;;;;5079628;28;19931;-54
2023/01/13 09:28:25;;;;;;;;;;;;;;;;;;5078935;28;19924;-53
2023/01/13 09:30:51;;;;;;;;;;;;;;;;;;5077961;28;19933;-56
2023/01/13 09:36:02;;;;;;;;;;;;;;;;;;5077335;28;20623;-54
2023/01/13 09:38:28;;;;;;;;;;;;;;;;;;5078355;28;19924;-55
2023/01/13 09:40:54;;;;;;;;;;;;;;;;;;5079492;28;19971;-55
2023/01/13 09:43:54;;;;;;;;;;;;;;;;;;5076484;28;19932;-56
2023/01/13 09:49:06;;;;;;;;;;;;;;;;;;5077852;28;20791;-55
2023/01/13 09:51:33;;;;;;;;;;;;;;;;;;5074981;28;19932;-55
2023/01/13 09:53:59;;;;;;;;;;;;;;;;;;5076903;28;19930;-56
2023/01/13 09:56:25;;;;;;;;;;;;;;;;;;5077954;28;19924;-56
2023/01/13 09:58:51;;;;;;;;;;;;;;;;;;5099009;28;20011;-52
2023/01/13 10:01:17;;;;;;;;;;;;;;;;;;5099513;28;20076;-56
2023/01/13 10:03:43;;;;;;;;;;;;;;;;;;5095634;28;19946;-56
2023/01/13 10:06:09;;;;;;;;;;;;;;;;;;5097729;28;19931;-56
2023/01/13 10:08:35;;;;;;;;;;;;;;;;;;5093844;28;19932;-56
2023/01/13 10:13:13;;;;;;;;;;;;;;;;;;5084994;28;20478;-56
2023/01/13 10:13:56;;;;;;;;;;;;;;;;;;5084864;28;19932;-52
2023/01/13 10:16:22;;;;;;;;;;;;;;;;;;5085120;28;19932;-56
2023/01/13 10:18:48;;;;;;;;;;;;;;;;;;5082981;28;20013;-53
2023/01/13 10:21:14;;;;;;;;;;;;;;;;;;5082331;28;20466;-56
2023/01/13 10:23:40;;;;;;;;;;;;;;;;;;5082583;28;19938;-54
2023/01/13 10:26:06;;;;;;;;;;;;;;;;;;5082986;28;20614;-55
2023/01/13 10:28:32;;;;;;;;;;;;;;;;;;5084292;28;20366;-56
2023/01/13 10:30:58;;;;;;;;;;;;;;;;;;5082186;28;19932;-56
2023/01/13 10:33:26;;;;;;;;;;;;;;;;;;5081843;28;20634;-54
2023/01/13 10:35:52;;;;;;;;;;;;;;;;;;5083992;28;19968;-54
2023/01/13 10:38:18;;;;;;;;;;;;;;;;;;5083445;28;19932;-54
2023/01/13 10:40:44;;;;;;;;;;;;;;;;;;5082464;28;19928;-56
2023/01/13 10:43:10;;;;;;;;;;;;;;;;;;5083409;28;19936;-54
2023/01/13 10:45:36;;;;;;;;;;;;;;;;;;5083082;28;19923;-56
2023/01/13 10:48:02;;;;;;;;;;;;;;;;;;5083358;28;20582;-57
2023/01/13 10:50:28;;;;;;;;;;;;;;;;;;5082869;28;19925;-54
2023/01/13 10:52:54;;;;;;;;;;;;;;;;;;5082285;28;19956;-57
2023/01/13 10:55:20;;;;;;;;;;;;;;;;;;5066169;28;19928;-57
2023/01/13 10:57:46;;;;;;;;;;;;;;;;;;5082363;28;20409;-56
2023/01/13 11:00:12;;;;;;;;;;;;;;;;;;5084181;28;19970;-55
2023/01/13 11:02:38;;;;;;;;;;;;;;;;;;5082414;28;19956;-56
2023/01/13 11:05:04;;;;;;;;;;;;;;;;;;5084034;28;20475;-57
2023/01/13 11:07:30;;;;;;;;;;;;;;;;;;5081578;28;20061;-55
2023/01/13 11:09:56;;;;;;;;;;;;;;;;;;5082457;28;20266;-54
2023/01/13 11:12:22;;;;;;;;;;;;;;;;;;5082407;28;20645;-55
2023/01/13 11:14:48;;;;;;;;;;;;;;;;;;5081722;28;19932;-54
2023/01/13 11:17:14;;;;;;;;;;;;;;;;;;5083783;28;20009;-56
2023/01/13 11:19:40;;;;;;;;;;;;;;;;;;5081799;28;20331;-56
2023/01/13 11:22:06;;;;;;;;;;;;;;;;;;5083362;28;20534;-56
2023/01/13 11:24:35;;;;;;;;;;;;;;;;;;5084536;28;19932;-53
2023/01/13 11:27:01;;;;;;;;;;;;;;;;;;5083864;28;19931;-56
2023/01/13 11:29:27;;;;;;;;;;;;;;;;;;5082992;28;19924;-55
2023/01/13 11:31:53;;;;;;;;;;;;;;;;;;5082074;28;19924;-55
2023/01/13 11:34:19;;;;;;;;;;;;;;;;;;5082592;28;19963;-56
2023/01/13 11:36:45;;;;;;;;;;;;;;;;;;5083052;28;19981;-56
2023/01/13 11:39:11;;;;;;;;;;;;;;;;;;5082948;28;19986;-56
2023/01/13 11:41:37;;;;;;;;;;;;;;;;;;5082086;28;20002;-54
2023/01/13 11:44:03;;;;;;;;;;;;;;;;;;5082600;28;19924;-55
2023/01/13 11:46:31;;;;;;;;;;;;;;;;;;5081694;28;20491;-53
2023/01/13 11:48:57;;;;;;;;;;;;;;;;;;5082659;28;20360;-56
2023/01/13 11:51:23;;;;;;;;;;;;;;;;;;5081361;28;19932;-56
2023/01/13 11:53:49;;;;;;;;;;;;;;;;;;5082468;28;19940;-56
2023/01/13 11:56:16;;;;;;;;;;;;;;;;;;5081319;28;19928;-54
2023/01/13 11:58:42;;;;;;;;;;;;;;;;;;5081549;28;20359;-53
2023/01/13 12:01:08;;;;;;;;;;;;;;;;;;5080696;28;19970;-55
2023/01/13 12:03:34;;;;;;;;;;;;;;;;;;5082160;28;19928;-56
2023/01/13 12:06:01;;;;;;;;;;;;;;;;;;5081587;28;19928;-56
2023/01/13 12:08:27;;;;;;;;;;;;;;;;;;5083446;28;19932;-56
2023/01/13 12:10:53;;;;;;;;;;;;;;;;;;5081548;28;19931;-56
2023/01/13 12:13:19;;;;;;;;;;;;;;;;;;5081265;28;19928;-57
2023/01/13 12:15:45;;;;;;;;;;;;;;;;;;5080323;28;19928;-56
2023/01/13 12:18:11;;;;;;;;;;;;;;;;;;5081223;28;19930;-56
2023/01/13 12:20:37;;;;;;;;;;;;;;;;;;5081834;28;20621;-55
2023/01/13 12:23:03;;;;;;;;;;;;;;;;;;5082372;28;19969;-55
2023/01/13 12:25:29;;;;;;;;;;;;;;;;;;5081411;28;19977;-53
2023/01/13 12:27:55;;;;;;;;;;;;;;;;;;5078976;28;19967;-56
2023/01/13 12:30:21;;;;;;;;;;;;;;;;;;5080223;28;19975;-56
2023/01/13 12:32:47;;;;;;;;;;;;;;;;;;5081010;28;19924;-54
2023/01/13 12:35:13;;;;;;;;;;;;;;;;;;5081294;28;19931;-55
2023/01/13 12:37:41;;;;;;;;;;;;;;;;;;5081444;28;20592;-56
2023/01/13 12:40:07;;;;;;;;;;;;;;;;;;5081613;28;19932;-55
2023/01/13 12:45:18;;;;;;;;;;;;;;;;;;5080625;28;19939;-56
2023/01/13 12:47:45;;;;;;;;;;;;;;;;;;5080382;28;19928;-56
2023/01/13 12:50:11;;;;;;;;;;;;;;;;;;5081422;28;19924;-55
2023/01/13 12:52:37;;;;;;;;;;;;;;;;;;5079629;28;20306;-53
2023/01/13 12:55:03;;;;;;;;;;;;;;;;;;5078705;28;19931;-57
2023/01/13 12:57:29;;;;;;;;;;;;;;;;;;5080993;28;19924;-55
2023/01/13 12:59:55;;;;;;;;;;;;;;;;;;5081784;28;20259;-57
2023/01/13 13:02:21;;;;;;;;;;;;;;;;;;5080004;28;19919;-53
2023/01/13 13:04:50;;;;;;;;;;;;;;;;;;5079329;28;20270;-53
2023/01/13 13:07:16;;;;;;;;;;;;;;;;;;5082002;28;19920;-56
2023/01/13 13:09:42;;;;;;;;;;;;;;;;;;5082244;28;19976;-56
2023/01/13 13:14:34;;;;;;;;;;;;;;;;;;5081579;28;19939;-57
2023/01/13 13:17:00;;;;;;;;;;;;;;;;;;5081325;28;19924;-56
2023/01/13 13:19:26;;;;;;;;;;;;;;;;;;5082172;28;20298;-56
2023/01/13 13:21:52;;;;;;;;;;;;;;;;;;5080855;28;20573;-54
2023/01/13 13:24:18;;;;;;;;;;;;;;;;;;5082062;28;19968;-53
2023/01/13 13:26:45;;;;;;;;;;;;;;;;;;5060662;28;19924;-56
2023/01/13 13:29:11;;;;;;;;;;;;;;;;;;5081757;28;19924;-56
2023/01/13 13:31:37;;;;;;;;;;;;;;;;;;5079115;28;19939;-53
2023/01/13 13:34:03;;;;;;;;;;;;;;;;;;5080588;28;20377;-56
2023/01/13 13:36:29;;;;;;;;;;;;;;;;;;5081693;28;19924;-56
2023/01/13 13:47:09;;;;;;;;;;;;;;;;;;5084506;28;20006;-56
2023/01/13 13:49:37;;;;;;;;;;;;;;;;;;5083816;28;19931;-56
2023/01/13 13:52:03;;;;;;;;;;;;;;;;;;5084348;28;19994;-54
2023/01/13 13:54:29;;;;;;;;;;;;;;;;;;5083920;28;19978;-56
2023/01/13 13:56:57;;;;;;;;;;;;;;;;;;5083514;28;19936;-56
2023/01/13 13:59:23;;;;;;;;;;;;;;;;;;5083509;28;19962;-55
2023/01/13 14:01:49;;;;;;;;;;;;;;;;;;5085282;28;19934;-55
2023/01/13 14:04:15;;;;;;;;;;;;;;;;;;5083350;28;19928;-57
2023/01/13 14:06:41;;;;;;;;;;;;;;;;;;5082526;28;19924;-56
2023/01/13 14:09:07;;;;;;;;;;;;;;;;;;5084587;28;19932;-53
2023/01/13 14:11:33;;;;;;;;;;;;;;;;;;5083922;28;20292;-57
2023/01/13 14:13:59;;;;;;;;;;;;;;;;;;5084843;28;20480;-52
2023/01/13 14:16:25;;;;;;;;;;;;;;;;;;5085359;28;20019;-54
2023/01/13 14:18:51;;;;;;;;;;;;;;;;;;5084819;28;19924;-53
2023/01/13 14:21:17;;;;;;;;;;;;;;;;;;5080581;28;19959;-56
2023/01/13 14:23:43;;;;;;;;;;;;;;;;;;5080281;28;19920;-56
2023/01/13 14:26:11;;;;;;;;;;;;;;;;;;5078206;28;19932;-57
2023/01/13 14:28:37;;;;;;;;;;;;;;;;;;5079061;28;19919;-56
2023/01/13 14:31:03;;;;;;;;;;;;;;;;;;5088033;28;19924;-55
2023/01/13 14:33:29;;;;;;;;;;;;;;;;;;5087168;28;19931;-56
2023/01/13 14:35:55;;;;;;;;;;;;;;;;;;5088135;28;20381;-57
2023/01/13 14:38:22;;;;;;;;;;;;;;;;;;5088084;28;20381;-57
2023/01/13 14:40:48;;;;;;;;;;;;;;;;;;5101341;28;20381;-54
2023/01/13 14:43:14;;;;;;;;;;;;;;;;;;5084684;28;19928;-56
2023/01/13 14:45:40;;;;;;;;;;;;;;;;;;5077209;28;19932;-55
2023/01/13 14:48:06;;;;;;;;;;;;;;;;;;5084072;28;19932;-56
2023/01/13 14:50:33;;;;;;;;;;;;;;;;;;5080224;28;19931;-56
2023/01/13 14:52:59;;;;;;;;;;;;;;;;;;5086366;28;19977;-56
2023/01/13 14:55:25;;;;;;;;;;;;;;;;;;5087131;28;20002;-56
2023/01/13 14:57:51;;;;;;;;;;;;;;;;;;5087141;28;19928;-55
2023/01/13 15:00:17;;;;;;;;;;;;;;;;;;5087180;28;19931;-58
2023/01/13 15:02:43;;;;;;;;;;;;;;;;;;5086760;28;19924;-56
2023/01/13 15:05:09;;;;;;;;;;;;;;;;;;5087367;28;20357;-55
2023/01/13 15:07:36;;;;;;;;;;;;;;;;;;5086156;28;19932;-56
2023/01/13 15:10:02;;;;;;;;;;;;;;;;;;5086231;28;19924;-55
2023/01/13 15:12:28;;;;;;;;;;;;;;;;;;5086665;28;19931;-53
2023/01/13 15:14:54;;;;;;;;;;;;;;;;;;5087101;28;19924;-54
2023/01/13 15:17:20;;;;;;;;;;;;;;;;;;5086894;28;19930;-56
2023/01/13 15:19:46;;;;;;;;;;;;;;;;;;5086758;28;19932;-56
2023/01/13 15:22:12;;;;;;;;;;;;;;;;;;5086968;28;20074;-57
2023/01/13 15:24:38;;;;;;;;;;;;;;;;;;5086306;28;19924;-56
2023/01/13 15:27:04;;;;;;;;;;;;;;;;;;5086150;28;19924;-56
2023/01/13 15:29:30;;;;;;;;;;;;;;;;;;5086642;28;19924;-56
2023/01/13 15:31:56;;;;;;;;;;;;;;;;;;5086549;28;20340;-56
2023/01/13 15:34:22;;;;;;;;;;;;;;;;;;5087089;28;20380;-55
2023/01/13 15:36:48;;;;;;;;;;;;;;;;;;5086939;28;19949;-56
2023/01/13 15:39:14;;;;;;;;;;;;;;;;;;5077097;28;19955;-56
2023/01/13 15:47:09;;;;;;;;;;;;;;;;;;5083634;28;20065;-57
2023/01/13 15:49:35;;;;;;;;;;;;;;;;;;5065154;28;20035;-55
2023/01/13 15:52:01;;;;;;;;;;;;;;;;;;5082989;28;19932;-56
2023/01/13 15:54:27;;;;;;;;;;;;;;;;;;5083100;28;19931;-55
2023/01/13 15:56:54;;;;;;;;;;;;;;;;;;5082332;28;19948;-57
2023/01/13 15:59:20;;;;;;;;;;;;;;;;;;5083376;28;19928;-57
2023/01/13 16:01:46;;;;;;;;;;;;;;;;;;5083019;28;19932;-55
2023/01/13 16:04:12;;;;;;;;;;;;;;;;;;5080395;28;19928;-57
2023/01/13 16:06:38;;;;;;;;;;;;;;;;;;5079619;28;19935;-57
2023/01/13 16:09:04;;;;;;;;;;;;;;;;;;5082857;28;19928;-54
2023/01/13 16:11:30;;;;;;;;;;;;;;;;;;5082157;28;19939;-53
2023/01/13 16:13:56;;;;;;;;;;;;;;;;;;5083387;28;20938;-57
2023/01/13 16:16:22;;;;;;;;;;;;;;;;;;5082957;28;19924;-54
2023/01/13 16:18:48;;;;;;;;;;;;;;;;;;5079583;28;20387;-57
2023/01/13 16:21:14;;;;;;;;;;;;;;;;;;5064578;28;19924;-56
2023/01/13 16:23:40;;;;;;;;;;;;;;;;;;5082336;28;19927;-57
2023/01/13 16:26:06;;;;;;;;;;;;;;;;;;5081579;28;19935;-56
2023/01/13 16:28:34;;;;;;;;;;;;;;;;;;5082703;28;19920;-57
2023/01/13 16:31:00;;;;;;;;;;;;;;;;;;5082297;28;19928;-56
2023/01/13 16:33:26;;;;;;;;;;;;;;;;;;5082810;28;19924;-54
2023/01/13 16:35:52;;;;;;;;;;;;;;;;;;5080394;28;19927;-57
2023/01/13 16:38:18;;;;;;;;;;;;;;;;;;5082140;28;20495;-58
2023/01/13 16:40:45;;;;;;;;;;;;;;;;;;5081329;28;20022;-57
2023/01/13 16:43:11;;;;;;;;;;;;;;;;;;5081076;28;19943;-55
2023/01/13 16:45:37;;;;;;;;;;;;;;;;;;5080821;28;19971;-57
2023/01/13 16:48:03;;;;;;;;;;;;;;;;;;5084990;28;20413;-57
2023/01/13 16:50:29;;;;;;;;;;;;;;;;;;5084740;28;20015;-55
2023/01/13 16:52:55;;;;;;;;;;;;;;;;;;5084811;28;20373;-57
2023/01/13 16:55:21;;;;;;;;;;;;;;;;;;5083907;28;20406;-57
2023/01/13 16:57:47;;;;;;;;;;;;;;;;;;5084309;28;19931;-57
2023/01/13 17:00:13;;;;;;;;;;;;;;;;;;5067048;28;19928;-60
2023/01/13 17:02:40;;;;;;;;;;;;;;;;;;5084472;28;19946;-60
2023/01/13 17:05:06;;;;;;;;;;;;;;;;;;5083056;28;19924;-57
2023/01/13 17:07:32;;;;;;;;;;;;;;;;;;5084967;28;20276;-56
2023/01/13 17:09:58;;;;;;;;;;;;;;;;;;5084712;28;20524;-59
2023/01/13 17:12:24;;;;;;;;;;;;;;;;;;5085975;28;20003;-57
2023/01/13 17:14:50;;;;;;;;;;;;;;;;;;5085252;28;19924;-58
2023/01/13 17:17:16;;;;;;;;;;;;;;;;;;5084211;28;19979;-60
2023/01/13 17:19:42;;;;;;;;;;;;;;;;;;5086775;28;19935;-58
2023/01/13 17:22:08;;;;;;;;;;;;;;;;;;5088891;28;19950;-52
2023/01/13 17:24:36;;;;;;;;;;;;;;;;;;5088096;28;19924;-59
2023/01/13 17:27:02;;;;;;;;;;;;;;;;;;5087500;28;20404;-60
2023/01/13 17:29:28;;;;;;;;;;;;;;;;;;5088623;28;20581;-60
2023/01/13 17:31:54;;;;;;;;;;;;;;;;;;5089007;28;19970;-59
2023/01/13 17:34:20;;;;;;;;;;;;;;;;;;5088355;28;19932;-59
2023/01/13 17:36:46;;;;;;;;;;;;;;;;;;5087911;28;19977;-58
2023/01/13 17:39:12;;;;;;;;;;;;;;;;;;5088434;28;19923;-57
2023/01/13 17:41:38;;;;;;;;;;;;;;;;;;5087452;28;19969;-56
2023/01/13 17:44:04;;;;;;;;;;;;;;;;;;5087854;28;20232;-59
2023/01/13 17:46:30;;;;;;;;;;;;;;;;;;5086055;28;19924;-58
2023/01/13 17:48:56;;;;;;;;;;;;;;;;;;5089778;28;20285;-59
2023/01/13 17:51:23;;;;;;;;;;;;;;;;;;5088347;28;19924;-59
2023/01/13 17:53:49;;;;;;;;;;;;;;;;;;5088477;28;19932;-58